createdAt,value
2022-11-09T00:01:05.160Z,39.17
2022-11-09T00:04:08.219Z,36.75
2022-11-09T00:07:10.521Z,38.63
2022-11-09T00:10:13.184Z,39.75
2022-11-09T00:13:15.608Z,35.13
2022-11-09T00:16:20.597Z,36.65
2022-11-09T00:19:23.528Z,40.85
2022-11-09T00:22:26.109Z,40.35
2022-11-09T00:25:28.360Z,45.70
2022-11-09T00:28:31.468Z,42.50
2022-11-09T00:31:35.094Z,38.58
2022-11-09T00:34:37.660Z,40.10
2022-11-09T00:37:40.950Z,54.23
2022-11-09T00:40:45.309Z,38.00
2022-11-09T00:43:48.401Z,36.20
2022-11-09T00:46:51.387Z,41.13
2022-11-09T00:49:53.762Z,37.78
2022-11-09T00:52:56.306Z,36.92
2022-11-09T00:56:01.357Z,38.20
2022-11-09T00:59:03.977Z,39.60
2022-11-09T01:02:06.262Z,38.58
2022-11-09T01:05:10.068Z,35.78
2022-11-09T01:08:12.748Z,40.15
2022-11-09T01:11:16.707Z,35.08
2022-11-09T01:14:19.005Z,36.17
2022-11-09T01:17:21.585Z,37.83
2022-11-09T01:20:24.008Z,34.47
2022-11-09T01:23:26.587Z,40.65
2022-11-09T01:26:29.764Z,40.33
2022-11-09T01:29:32.320Z,42.67
2022-11-09T01:32:34.551Z,43.92
2022-11-09T01:35:38.986Z,35.78
2022-11-09T01:38:41.324Z,38.13
2022-11-09T01:41:44.233Z,38.13
2022-11-09T01:44:46.463Z,39.65
2022-11-09T01:47:56.664Z,43.00
2022-11-09T01:51:04.284Z,38.08
2022-11-09T01:54:26.138Z,39.05
2022-11-09T01:57:36.669Z,36.10
2022-11-09T02:00:44.849Z,34.22
2022-11-09T02:04:11.162Z,35.33
2022-11-09T02:07:13.531Z,31.05
2022-11-09T02:10:27.913Z,34.35
2022-11-09T02:13:33.098Z,35.00
2022-11-09T02:16:40.357Z,31.52
2022-11-09T02:19:42.650Z,36.03
2022-11-09T02:22:45.417Z,31.05
2022-11-09T02:26:09.535Z,35.90
2022-11-09T02:29:26.761Z,28.15
2022-11-09T02:32:30.734Z,33.33
2022-11-09T02:35:33.726Z,30.25
2022-11-09T02:38:36.064Z,34.05
2022-11-09T02:42:20.974Z,29.23
2022-11-09T02:45:24.096Z,33.50
2022-11-09T02:48:26.784Z,30.92
2022-11-09T02:51:29.429Z,32.60
2022-11-09T02:54:32.022Z,28.20
2022-11-09T02:57:34.616Z,33.42
2022-11-09T03:00:37.485Z,35.30
2022-11-09T03:03:40.297Z,36.50
2022-11-09T03:06:43.205Z,31.40
2022-11-09T03:09:46.519Z,24.60
2022-11-09T03:12:49.149Z,32.23
2022-11-09T03:15:51.701Z,31.40
2022-11-09T03:18:54.442Z,29.60
2022-11-09T03:21:57.267Z,28.30
2022-11-09T03:24:59.887Z,30.00
2022-11-09T03:28:06.180Z,30.25
2022-11-09T03:31:09.490Z,30.10
2022-11-09T03:34:12.713Z,30.02
2022-11-09T03:37:15.505Z,27.60
2022-11-09T03:40:18.287Z,24.73
2022-11-09T03:43:21.606Z,28.00
2022-11-09T03:46:24.175Z,35.22
2022-11-09T03:49:26.651Z,31.60
2022-11-09T03:52:28.882Z,29.80
2022-11-09T03:55:31.407Z,38.55
2022-11-09T03:58:33.691Z,33.00
2022-11-09T04:01:36.321Z,32.10
2022-11-09T04:04:38.938Z,29.50
2022-11-09T04:07:46.610Z,30.50
2022-11-09T04:10:49.153Z,31.75
2022-11-09T04:13:51.506Z,35.28
2022-11-09T04:16:54.004Z,29.35
2022-11-09T04:19:56.214Z,28.85
2022-11-09T04:23:03.800Z,29.27
2022-11-09T04:26:06.166Z,32.70
2022-11-09T04:29:08.761Z,34.13
2022-11-09T04:32:11.014Z,30.58
2022-11-09T04:35:13.533Z,29.15
2022-11-09T04:38:15.830Z,30.95
2022-11-09T04:41:18.407Z,31.50
2022-11-09T04:44:20.682Z,30.77
2022-11-09T04:47:23.205Z,30.50
2022-11-09T04:50:25.530Z,25.52
2022-11-09T04:53:28.243Z,25.73
2022-11-09T04:56:30.468Z,29.85
2022-11-09T04:59:32.975Z,30.52
2022-11-09T05:02:35.203Z,30.80
2022-11-09T05:05:38.378Z,30.52
2022-11-09T05:08:40.601Z,28.12
2022-11-09T05:11:43.168Z,30.80
2022-11-09T05:14:45.432Z,30.35
2022-11-09T05:17:48.118Z,31.12
2022-11-09T05:20:52.556Z,32.28
2022-11-09T05:24:01.389Z,34.42
2022-11-09T05:27:05.088Z,33.33
2022-11-09T05:30:08.553Z,30.10
2022-11-09T05:33:10.858Z,31.05
2022-11-09T05:36:13.389Z,31.55
2022-11-09T05:39:15.698Z,35.47
2022-11-09T05:42:18.213Z,29.37
2022-11-09T05:45:41.354Z,30.02
2022-11-09T05:48:44.914Z,32.35
2022-11-09T05:51:47.518Z,33.83
2022-11-09T05:54:50.282Z,28.83
2022-11-09T05:57:52.735Z,34.28
2022-11-09T06:00:55.214Z,32.85
2022-11-09T06:03:57.751Z,33.40
2022-11-09T06:07:00.105Z,36.42
2022-11-09T06:10:03.586Z,32.13
2022-11-09T06:13:05.988Z,28.37
2022-11-09T06:16:09.742Z,30.75
2022-11-09T06:19:12.046Z,27.55
2022-11-09T06:22:14.778Z,29.80
2022-11-09T06:25:17.121Z,29.70
2022-11-09T06:28:20.217Z,28.20
2022-11-09T06:31:22.516Z,27.70
2022-11-09T06:34:25.133Z,29.10
2022-11-09T06:38:03.434Z,29.15
2022-11-09T06:41:06.445Z,31.25
2022-11-09T06:44:11.680Z,26.55
2022-11-09T06:47:15.184Z,28.58
2022-11-09T06:50:17.503Z,26.80
2022-11-09T06:53:20.352Z,26.20
2022-11-09T06:56:22.922Z,29.50
2022-11-09T06:59:26.731Z,26.33
2022-11-09T07:05:32.700Z,27.08
2022-11-09T07:08:35.531Z,29.12
2022-11-09T07:11:38.203Z,32.00
2022-11-09T07:14:40.618Z,26.45
2022-11-09T07:17:43.197Z,24.48
2022-11-09T07:20:45.600Z,27.30
2022-11-09T07:23:49.546Z,31.08
2022-11-09T07:26:51.830Z,23.65
2022-11-09T07:29:54.507Z,32.47
2022-11-09T07:33:09.146Z,36.97
2022-11-09T07:36:16.852Z,26.85
2022-11-09T07:39:22.346Z,25.55
2022-11-09T07:42:25.721Z,27.48
2022-11-09T07:45:29.591Z,25.92
2022-11-09T07:48:32.672Z,28.30
2022-11-09T07:51:35.420Z,29.17
2022-11-09T07:54:39.531Z,31.85
2022-11-09T07:57:44.659Z,29.35
2022-11-09T08:01:09.381Z,34.20
2022-11-09T08:04:15.499Z,34.03
2022-11-09T08:07:19.438Z,31.98
2022-11-09T08:13:27.273Z,32.58
2022-11-09T08:16:34.866Z,32.35
2022-11-09T08:19:43.116Z,37.70
2022-11-09T08:22:47.659Z,33.08
2022-11-09T08:25:50.910Z,34.42
2022-11-09T08:28:54.772Z,45.10
2022-11-09T08:31:59.693Z,40.40
2022-11-09T08:35:03.799Z,39.22
2022-11-09T08:38:06.373Z,41.78
2022-11-09T08:41:13.360Z,41.40
2022-11-09T08:44:18.651Z,44.10
2022-11-09T08:47:24.516Z,42.03
2022-11-09T08:50:30.683Z,55.95
2022-11-09T08:53:35.566Z,39.35
2022-11-09T08:56:40.179Z,38.03
2022-11-09T08:59:43.597Z,45.00
2022-11-09T09:02:49.639Z,41.58
2022-11-09T09:05:54.784Z,39.58
2022-11-09T09:09:01.519Z,37.97
2022-11-09T09:12:07.769Z,44.88
2022-11-09T09:15:15.796Z,47.28
2022-11-09T09:18:19.255Z,44.40
2022-11-09T09:21:22.079Z,45.50
2022-11-09T09:24:24.950Z,42.30
2022-11-09T09:27:32.274Z,51.95
2022-11-09T09:30:38.034Z,42.90
2022-11-09T09:33:43.379Z,44.13
2022-11-09T09:37:00.382Z,41.17
2022-11-09T09:40:24.604Z,49.92
2022-11-09T09:43:31.593Z,53.38
2022-11-09T09:47:29.304Z,48.25
2022-11-09T09:50:45.904Z,43.38
2022-11-09T09:53:55.982Z,47.88
2022-11-09T09:57:13.618Z,49.03
2022-11-09T10:00:26.282Z,53.13
2022-11-09T10:03:44.326Z,50.12
2022-11-09T10:07:23.777Z,50.70
2022-11-09T10:10:46.302Z,56.20
2022-11-09T10:14:24.288Z,52.70
2022-11-09T10:17:51.708Z,52.42
2022-11-09T10:21:20.511Z,52.15
2022-11-09T10:24:34.288Z,57.45
2022-11-09T10:28:12.759Z,52.35
2022-11-09T10:31:20.311Z,69.55
2022-11-09T10:34:31.454Z,57.30
2022-11-09T10:37:48.505Z,56.63
2022-11-09T10:40:59.066Z,51.33
2022-11-09T10:44:19.853Z,57.90
2022-11-09T10:47:53.034Z,57.67
2022-11-09T10:51:38.722Z,54.40
2022-11-09T10:55:42.557Z,51.45
2022-11-09T10:59:29.481Z,61.25
2022-11-09T11:02:52.804Z,48.78
2022-11-09T11:06:20.801Z,53.08
2022-11-09T11:09:41.685Z,58.22
2022-11-09T11:13:09.102Z,54.33
2022-11-09T11:16:37.181Z,55.78
2022-11-09T11:20:25.840Z,63.80
2022-11-09T11:24:27.153Z,52.53
2022-11-09T11:28:06.789Z,63.45
2022-11-09T11:57:58.495Z,63.10
2022-11-09T12:02:03.056Z,61.05
2022-11-09T12:05:50.545Z,78.05
2022-11-09T12:09:24.744Z,68.57
2022-11-09T12:13:05.874Z,65.85
2022-11-09T12:20:21.179Z,64.95
2022-11-09T12:24:47.170Z,65.60
2022-11-09T12:28:27.533Z,61.72
2022-11-09T12:31:53.811Z,63.80
2022-11-09T12:35:51.428Z,64.10
2022-11-09T12:39:41.582Z,57.05
2022-11-09T12:43:30.212Z,62.15
2022-11-09T12:47:07.002Z,67.03
2022-11-09T12:50:29.262Z,66.50
2022-11-09T12:53:49.994Z,63.78
2022-11-09T12:57:32.559Z,63.10
2022-11-09T13:00:59.146Z,61.88
2022-11-09T13:04:24.962Z,61.50
2022-11-09T13:07:54.230Z,68.57
2022-11-09T13:11:18.214Z,78.20
2022-11-09T13:14:39.363Z,75.50
2022-11-09T13:18:33.657Z,75.22
2022-11-09T13:21:56.690Z,82.85
2022-11-09T13:25:49.759Z,83.57
2022-11-09T13:29:29.460Z,71.22
2022-11-09T13:33:06.971Z,70.60
2022-11-09T13:36:28.011Z,72.68
2022-11-09T13:39:48.854Z,87.50
2022-11-09T13:43:14.024Z,78.57
2022-11-09T13:46:41.808Z,81.97
2022-11-09T13:50:18.562Z,89.32
2022-11-09T13:53:39.441Z,82.57
2022-11-09T13:57:07.232Z,81.50
2022-11-09T14:00:34.113Z,75.00
2022-11-09T14:03:55.605Z,87.82
2022-11-09T14:07:25.829Z,76.68
2022-11-09T14:11:08.068Z,76.12
2022-11-09T14:15:15.081Z,79.20
2022-11-09T14:18:45.972Z,70.72
2022-11-09T14:22:16.557Z,73.62
2022-11-09T14:25:37.491Z,86.35
2022-11-09T14:28:58.202Z,77.87
2022-11-09T14:32:23.764Z,74.70
2022-11-09T14:35:47.120Z,72.50
2022-11-09T14:39:26.708Z,72.30
2022-11-09T14:42:59.775Z,78.35
2022-11-09T14:46:23.577Z,70.40
2022-11-09T14:49:46.053Z,70.70
2022-11-09T14:53:14.184Z,77.30
2022-11-09T14:56:37.350Z,84.68
2022-11-09T14:59:58.350Z,80.12
2022-11-09T15:03:28.172Z,74.32
2022-11-09T15:06:51.980Z,70.53
2022-11-09T15:10:19.951Z,72.87
2022-11-09T15:13:41.929Z,85.90
2022-11-09T15:17:23.843Z,78.65
2022-11-09T15:20:44.715Z,76.70
2022-11-09T15:24:08.766Z,72.20
2022-11-09T15:27:34.092Z,67.80
2022-11-09T15:30:54.932Z,72.15
2022-11-09T15:34:24.689Z,74.78
2022-11-09T15:37:51.667Z,70.60
2022-11-09T15:41:15.095Z,70.57
2022-11-09T15:44:37.522Z,74.18
2022-11-09T15:47:58.980Z,67.90
2022-11-09T15:51:20.603Z,61.67
2022-11-09T15:54:46.426Z,68.28
2022-11-09T15:58:12.664Z,66.18
2022-11-09T16:01:33.960Z,69.45
2022-11-09T16:04:54.639Z,62.62
2022-11-09T16:08:15.678Z,63.80
2022-11-09T16:11:36.537Z,72.85
2022-11-09T16:14:57.679Z,63.67
2022-11-09T16:18:24.519Z,69.82
2022-11-09T16:21:46.508Z,61.40
2022-11-09T16:25:07.610Z,68.95
2022-11-09T16:28:28.393Z,72.97
2022-11-09T16:31:51.926Z,65.00
2022-11-09T16:35:29.024Z,59.28
2022-11-09T16:38:52.892Z,66.57
2022-11-09T16:42:15.871Z,68.90
2022-11-09T16:45:36.616Z,71.10
2022-11-09T16:49:01.016Z,69.80
2022-11-09T16:55:43.054Z,72.62
2022-11-09T16:59:03.856Z,65.25
2022-11-09T17:02:28.303Z,68.10
2022-11-09T17:09:09.927Z,64.75
2022-11-09T17:12:31.499Z,78.22
2022-11-09T17:15:55.321Z,66.28
2022-11-09T17:19:16.015Z,65.30
2022-11-09T17:22:39.270Z,67.22
2022-11-09T17:26:06.425Z,61.42
2022-11-09T17:29:27.988Z,76.35
2022-11-09T17:32:48.700Z,72.45
2022-11-09T17:36:14.162Z,65.70
2022-11-09T17:39:35.097Z,70.70
2022-11-09T17:42:57.113Z,69.82
2022-11-09T17:46:20.603Z,72.62
2022-11-09T17:49:42.996Z,79.87
2022-11-09T17:53:04.151Z,69.75
2022-11-09T17:56:25.127Z,69.10
2022-11-09T17:59:45.882Z,78.22
2022-11-09T18:03:06.895Z,69.70
2022-11-09T18:06:29.596Z,73.00
2022-11-09T18:09:50.430Z,66.75
2022-11-09T18:13:11.817Z,70.18
2022-11-09T18:16:32.753Z,75.75
2022-11-09T18:19:53.599Z,72.45
2022-11-09T18:23:14.490Z,72.32
2022-11-09T18:26:35.590Z,69.70
2022-11-09T18:29:57.191Z,77.37
2022-11-09T18:33:17.995Z,80.40
2022-11-09T18:36:38.617Z,76.45
2022-11-09T18:39:59.454Z,72.25
2022-11-09T18:43:20.495Z,72.43
2022-11-09T18:46:41.113Z,87.55
2022-11-09T18:50:02.246Z,72.28
2022-11-09T18:53:24.761Z,77.05
2022-11-09T18:56:46.218Z,75.68
2022-11-09T19:00:07.350Z,65.78
2022-11-09T19:03:28.405Z,72.28
2022-11-09T19:06:49.120Z,70.53
2022-11-09T19:10:10.962Z,74.85
2022-11-09T19:13:32.320Z,66.03
2022-11-09T19:16:54.041Z,66.28
2022-11-09T19:20:15.454Z,68.85
2022-11-09T19:23:40.055Z,62.97
2022-11-09T19:30:25.530Z,67.68
2022-11-09T19:33:46.187Z,73.97
2022-11-09T19:37:06.930Z,95.30
2022-11-09T19:40:27.842Z,68.00
2022-11-09T19:43:49.943Z,65.00
2022-11-09T19:47:11.340Z,61.35
2022-11-09T19:50:32.289Z,63.50
2022-11-09T19:53:55.294Z,56.80
2022-11-09T19:57:16.153Z,58.87
2022-11-09T20:00:37.208Z,61.80
2022-11-09T20:03:59.932Z,61.37
2022-11-09T20:07:20.596Z,58.35
2022-11-09T20:10:41.361Z,63.80
2022-11-09T20:14:03.564Z,65.93
2022-11-09T20:17:24.559Z,66.55
2022-11-09T20:20:45.336Z,67.40
2022-11-09T20:24:06.569Z,71.95
2022-11-09T20:27:32.047Z,68.25
2022-11-09T20:30:53.068Z,75.47
2022-11-09T20:34:14.327Z,70.18
2022-11-09T20:37:36.316Z,71.55
2022-11-09T20:40:59.055Z,69.18
2022-11-09T20:44:19.728Z,61.28
2022-11-09T20:48:03.405Z,62.03
2022-11-09T20:51:21.987Z,58.03
2022-11-09T20:54:42.749Z,66.65
2022-11-09T20:58:04.692Z,62.65
2022-11-09T21:01:25.525Z,62.10
2022-11-09T21:04:46.246Z,61.00
2022-11-09T21:08:07.165Z,69.65
2022-11-09T21:11:57.211Z,62.33
2022-11-09T21:15:18.057Z,65.45
2022-11-09T21:18:39.232Z,70.85
2022-11-09T21:21:59.800Z,74.12
2022-11-09T21:25:39.229Z,71.97
2022-11-09T21:29:18.613Z,74.85
2022-11-09T21:32:39.639Z,70.65
2022-11-09T21:36:07.465Z,67.03
2022-11-09T21:39:27.967Z,70.93
2022-11-09T21:42:48.677Z,69.68
2022-11-09T21:46:09.642Z,72.75
2022-11-09T21:49:30.658Z,71.07
2022-11-09T21:52:51.374Z,75.82
2022-11-09T21:56:12.977Z,80.75
2022-11-09T21:59:33.868Z,76.72
2022-11-09T22:02:54.666Z,76.93
2022-11-09T22:06:16.276Z,75.57
2022-11-09T22:10:05.854Z,80.82
2022-11-09T22:13:37.070Z,77.20
2022-11-09T22:16:58.212Z,85.75
2022-11-09T22:20:37.919Z,78.00
2022-11-09T22:24:02.220Z,90.95
2022-11-09T22:27:23.068Z,83.65
2022-11-09T22:30:43.814Z,92.80
2022-11-09T22:34:04.840Z,84.35
2022-11-09T22:37:25.632Z,86.03
2022-11-09T22:40:46.690Z,79.20
2022-11-09T22:44:08.065Z,86.05
2022-11-09T22:47:28.630Z,89.13
2022-11-09T22:50:49.623Z,87.37
2022-11-09T22:54:10.363Z,81.70
2022-11-09T22:57:32.992Z,81.28
2022-11-09T23:00:54.440Z,91.00
2022-11-09T23:04:15.096Z,91.05
2022-11-09T23:07:36.076Z,90.25
2022-11-09T23:10:57.063Z,81.15
2022-11-09T23:14:37.617Z,89.13
2022-11-09T23:18:17.204Z,94.82
2022-11-09T23:21:38.634Z,91.80
2022-11-09T23:25:18.100Z,98.00
2022-11-09T23:28:38.857Z,90.93
2022-11-09T23:31:59.560Z,92.43
2022-11-09T23:35:20.278Z,87.95
2022-11-09T23:38:41.074Z,98.62
2022-11-09T23:42:01.760Z,111.30
2022-11-09T23:45:22.643Z,97.43
2022-11-09T23:48:44.314Z,94.53
2022-11-09T23:52:05.299Z,110.75
2022-11-09T23:55:32.197Z,106.28
2022-11-09T23:58:52.669Z,108.07
